sensor_id;sensor_type;location;lat;lon;timestamp;P1;durP1;ratioP1;P2;durP2;ratioP2
73919;SDS011;62266;53.348;-1.496;2023-07-13T00:01:19;6.15;;;1.70;;
73919;SDS011;62266;53.348;-1.496;2023-07-13T00:04:03;3.28;;;1.77;;
73919;SDS011;62266;53.348;-1.496;2023-07-13T00:06:47;2.93;;;1.93;;
73919;SDS011;62266;53.348;-1.496;2023-07-13T00:09:32;4.00;;;1.80;;
73919;SDS011;62266;53.348;-1.496;2023-07-13T00:12:27;6.13;;;2.00;;
73919;SDS011;62266;53.348;-1.496;2023-07-13T00:15:16;4.72;;;1.80;;
73919;SDS011;62266;53.348;-1.496;2023-07-13T00:18:09;4.68;;;2.05;;
73919;SDS011;62266;53.348;-1.496;2023-07-13T00:20:53;4.80;;;2.27;;
73919;SDS011;62266;53.348;-1.496;2023-07-13T00:23:38;3.30;;;2.20;;
73919;SDS011;62266;53.348;-1.496;2023-07-13T00:26:25;4.88;;;2.78;;
73919;SDS011;62266;53.348;-1.496;2023-07-13T00:29:10;5.45;;;2.50;;
73919;SDS011;62266;53.348;-1.496;2023-07-13T00:31:54;5.75;;;2.20;;
73919;SDS011;62266;53.348;-1.496;2023-07-13T00:34:41;5.70;;;2.27;;
73919;SDS011;62266;53.348;-1.496;2023-07-13T00:37:25;5.22;;;2.10;;
73919;SDS011;62266;53.348;-1.496;2023-07-13T00:40:11;8.68;;;3.00;;
73919;SDS011;62266;53.348;-1.496;2023-07-13T00:42:57;5.78;;;2.65;;
73919;SDS011;62266;53.348;-1.496;2023-07-13T00:48:31;4.33;;;2.50;;
73919;SDS011;62266;53.348;-1.496;2023-07-13T00:51:28;4.20;;;2.10;;
73919;SDS011;62266;53.348;-1.496;2023-07-13T00:54:20;3.58;;;1.98;;
73919;SDS011;62266;53.348;-1.496;2023-07-13T00:57:09;5.07;;;2.35;;
73919;SDS011;62266;53.348;-1.496;2023-07-13T00:59:57;7.07;;;2.30;;
73919;SDS011;62266;53.348;-1.496;2023-07-13T01:02:45;5.43;;;1.90;;
73919;SDS011;62266;53.348;-1.496;2023-07-13T01:05:33;4.25;;;2.30;;
73919;SDS011;62266;53.348;-1.496;2023-07-13T01:08:18;8.32;;;2.38;;
73919;SDS011;62266;53.348;-1.496;2023-07-13T01:11:02;6.20;;;2.47;;
73919;SDS011;62266;53.348;-1.496;2023-07-13T01:13:49;5.28;;;2.40;;
73919;SDS011;62266;53.348;-1.496;2023-07-13T01:16:33;8.90;;;3.07;;
73919;SDS011;62266;53.348;-1.496;2023-07-13T01:19:27;6.40;;;2.15;;
73919;SDS011;62266;53.348;-1.496;2023-07-13T01:22:19;5.03;;;2.50;;
73919;SDS011;62266;53.348;-1.496;2023-07-13T01:25:08;6.68;;;2.35;;
73919;SDS011;62266;53.348;-1.496;2023-07-13T01:27:52;3.47;;;2.40;;
73919;SDS011;62266;53.348;-1.496;2023-07-13T01:30:37;4.17;;;2.57;;
73919;SDS011;62266;53.348;-1.496;2023-07-13T01:33:24;6.65;;;2.90;;
73919;SDS011;62266;53.348;-1.496;2023-07-13T01:36:09;8.50;;;2.50;;
73919;SDS011;62266;53.348;-1.496;2023-07-13T01:38:54;5.90;;;2.40;;
73919;SDS011;62266;53.348;-1.496;2023-07-13T01:41:38;6.75;;;2.40;;
73919;SDS011;62266;53.348;-1.496;2023-07-13T01:44:23;5.17;;;2.60;;
73919;SDS011;62266;53.348;-1.496;2023-07-13T01:47:07;5.97;;;2.60;;
73919;SDS011;62266;53.348;-1.496;2023-07-13T01:49:52;6.40;;;2.58;;
73919;SDS011;62266;53.348;-1.496;2023-07-13T01:52:36;5.97;;;2.63;;
73919;SDS011;62266;53.348;-1.496;2023-07-13T01:55:20;9.10;;;2.20;;
73919;SDS011;62266;53.348;-1.496;2023-07-13T01:58:05;7.53;;;2.37;;
73919;SDS011;62266;53.348;-1.496;2023-07-13T02:00:51;7.38;;;2.30;;
73919;SDS011;62266;53.348;-1.496;2023-07-13T02:03:35;4.10;;;2.10;;
73919;SDS011;62266;53.348;-1.496;2023-07-13T02:06:19;5.25;;;2.63;;
73919;SDS011;62266;53.348;-1.496;2023-07-13T02:09:03;5.88;;;3.00;;
73919;SDS011;62266;53.348;-1.496;2023-07-13T02:11:47;6.47;;;2.87;;
73919;SDS011;62266;53.348;-1.496;2023-07-13T02:14:32;5.88;;;3.45;;
73919;SDS011;62266;53.348;-1.496;2023-07-13T02:17:16;7.38;;;3.03;;
73919;SDS011;62266;53.348;-1.496;2023-07-13T02:20:00;5.97;;;3.20;;
73919;SDS011;62266;53.348;-1.496;2023-07-13T02:22:48;6.78;;;3.00;;
73919;SDS011;62266;53.348;-1.496;2023-07-13T02:25:32;5.73;;;2.90;;
73919;SDS011;62266;53.348;-1.496;2023-07-13T02:28:16;6.40;;;2.78;;
73919;SDS011;62266;53.348;-1.496;2023-07-13T02:31:06;6.32;;;3.38;;
73919;SDS011;62266;53.348;-1.496;2023-07-13T02:33:54;8.60;;;3.20;;
73919;SDS011;62266;53.348;-1.496;2023-07-13T02:36:38;6.38;;;3.08;;
73919;SDS011;62266;53.348;-1.496;2023-07-13T02:39:22;6.27;;;2.70;;
73919;SDS011;62266;53.348;-1.496;2023-07-13T02:42:06;6.80;;;2.92;;
73919;SDS011;62266;53.348;-1.496;2023-07-13T02:44:50;4.90;;;3.17;;
73919;SDS011;62266;53.348;-1.496;2023-07-13T02:47:36;6.18;;;3.30;;
73919;SDS011;62266;53.348;-1.496;2023-07-13T02:50:20;7.22;;;3.00;;
73919;SDS011;62266;53.348;-1.496;2023-07-13T02:53:04;7.63;;;3.30;;
73919;SDS011;62266;53.348;-1.496;2023-07-13T02:55:48;6.00;;;3.42;;
73919;SDS011;62266;53.348;-1.496;2023-07-13T02:58:32;7.45;;;3.40;;
73919;SDS011;62266;53.348;-1.496;2023-07-13T03:01:19;7.78;;;3.83;;
73919;SDS011;62266;53.348;-1.496;2023-07-13T03:04:04;7.35;;;3.47;;
73919;SDS011;62266;53.348;-1.496;2023-07-13T03:06:49;5.17;;;3.17;;
73919;SDS011;62266;53.348;-1.496;2023-07-13T03:09:33;5.05;;;3.40;;
73919;SDS011;62266;53.348;-1.496;2023-07-13T03:12:18;6.47;;;3.30;;
73919;SDS011;62266;53.348;-1.496;2023-07-13T03:15:02;10.27;;;3.58;;
73919;SDS011;62266;53.348;-1.496;2023-07-13T03:17:49;7.80;;;2.97;;
73919;SDS011;62266;53.348;-1.496;2023-07-13T03:20:34;6.50;;;3.73;;
73919;SDS011;62266;53.348;-1.496;2023-07-13T03:23:19;9.73;;;3.75;;
73919;SDS011;62266;53.348;-1.496;2023-07-13T03:26:09;9.57;;;4.00;;
73919;SDS011;62266;53.348;-1.496;2023-07-13T03:28:58;6.78;;;3.53;;
73919;SDS011;62266;53.348;-1.496;2023-07-13T03:31:43;6.25;;;3.80;;
73919;SDS011;62266;53.348;-1.496;2023-07-13T03:34:27;9.47;;;3.70;;
73919;SDS011;62266;53.348;-1.496;2023-07-13T03:37:12;6.38;;;4.03;;
73919;SDS011;62266;53.348;-1.496;2023-07-13T03:39:58;6.05;;;3.78;;
73919;SDS011;62266;53.348;-1.496;2023-07-13T03:42:43;9.48;;;3.60;;
73919;SDS011;62266;53.348;-1.496;2023-07-13T03:45:26;9.25;;;3.40;;
73919;SDS011;62266;53.348;-1.496;2023-07-13T03:48:10;5.00;;;3.00;;
73919;SDS011;62266;53.348;-1.496;2023-07-13T03:50:54;7.75;;;4.30;;
73919;SDS011;62266;53.348;-1.496;2023-07-13T03:53:39;6.50;;;3.47;;
73919;SDS011;62266;53.348;-1.496;2023-07-13T03:56:24;7.45;;;3.70;;
73919;SDS011;62266;53.348;-1.496;2023-07-13T03:59:09;6.60;;;4.38;;
73919;SDS011;62266;53.348;-1.496;2023-07-13T04:01:53;6.50;;;3.50;;
73919;SDS011;62266;53.348;-1.496;2023-07-13T04:04:39;7.35;;;3.95;;
73919;SDS011;62266;53.348;-1.496;2023-07-13T04:07:24;5.70;;;3.80;;
73919;SDS011;62266;53.348;-1.496;2023-07-13T04:10:09;7.10;;;3.17;;
73919;SDS011;62266;53.348;-1.496;2023-07-13T04:12:54;5.80;;;3.25;;
73919;SDS011;62266;53.348;-1.496;2023-07-13T04:15:38;5.30;;;3.30;;
73919;SDS011;62266;53.348;-1.496;2023-07-13T04:18:22;6.22;;;3.13;;
73919;SDS011;62266;53.348;-1.496;2023-07-13T04:21:07;6.25;;;3.25;;
73919;SDS011;62266;53.348;-1.496;2023-07-13T04:23:53;8.63;;;3.55;;
73919;SDS011;62266;53.348;-1.496;2023-07-13T04:26:37;9.73;;;5.63;;
73919;SDS011;62266;53.348;-1.496;2023-07-13T04:29:22;5.40;;;3.40;;
73919;SDS011;62266;53.348;-1.496;2023-07-13T04:32:07;5.35;;;3.55;;
73919;SDS011;62266;53.348;-1.496;2023-07-13T04:34:51;6.07;;;3.75;;
73919;SDS011;62266;53.348;-1.496;2023-07-13T04:37:37;6.57;;;4.13;;
73919;SDS011;62266;53.348;-1.496;2023-07-13T04:40:21;6.38;;;4.80;;
73919;SDS011;62266;53.348;-1.496;2023-07-13T04:43:05;7.53;;;5.40;;
73919;SDS011;62266;53.348;-1.496;2023-07-13T04:45:50;7.32;;;4.95;;
73919;SDS011;62266;53.348;-1.496;2023-07-13T04:48:37;7.60;;;4.95;;
73919;SDS011;62266;53.348;-1.496;2023-07-13T04:51:22;8.23;;;4.93;;
73919;SDS011;62266;53.348;-1.496;2023-07-13T04:54:06;6.88;;;5.00;;
73919;SDS011;62266;53.348;-1.496;2023-07-13T04:56:51;7.50;;;4.50;;
73919;SDS011;62266;53.348;-1.496;2023-07-13T04:59:35;7.03;;;4.50;;
73919;SDS011;62266;53.348;-1.496;2023-07-13T05:02:23;7.22;;;5.10;;
73919;SDS011;62266;53.348;-1.496;2023-07-13T05:05:07;4.78;;;4.10;;
73919;SDS011;62266;53.348;-1.496;2023-07-13T05:07:51;7.95;;;4.97;;
73919;SDS011;62266;53.348;-1.496;2023-07-13T05:10:36;6.57;;;4.70;;
73919;SDS011;62266;53.348;-1.496;2023-07-13T05:13:21;4.97;;;3.45;;
73919;SDS011;62266;53.348;-1.496;2023-07-13T05:16:06;5.30;;;4.30;;
73919;SDS011;62266;53.348;-1.496;2023-07-13T05:18:51;7.35;;;4.30;;
73919;SDS011;62266;53.348;-1.496;2023-07-13T05:21:36;7.68;;;4.20;;
73919;SDS011;62266;53.348;-1.496;2023-07-13T05:24:20;6.83;;;5.03;;
73919;SDS011;62266;53.348;-1.496;2023-07-13T05:27:06;9.57;;;7.22;;
73919;SDS011;62266;53.348;-1.496;2023-07-13T05:29:50;8.82;;;6.68;;
73919;SDS011;62266;53.348;-1.496;2023-07-13T05:32:34;7.55;;;5.72;;
73919;SDS011;62266;53.348;-1.496;2023-07-13T05:35:18;7.30;;;6.38;;
73919;SDS011;62266;53.348;-1.496;2023-07-13T05:38:02;7.33;;;5.97;;
73919;SDS011;62266;53.348;-1.496;2023-07-13T05:40:46;7.93;;;6.75;;
73919;SDS011;62266;53.348;-1.496;2023-07-13T05:43:31;9.73;;;7.20;;
73919;SDS011;62266;53.348;-1.496;2023-07-13T05:46:15;8.43;;;6.75;;
73919;SDS011;62266;53.348;-1.496;2023-07-13T05:48:59;9.75;;;6.45;;
73919;SDS011;62266;53.348;-1.496;2023-07-13T05:51:44;6.93;;;6.20;;
73919;SDS011;62266;53.348;-1.496;2023-07-13T05:54:28;7.00;;;6.00;;
73919;SDS011;62266;53.348;-1.496;2023-07-13T05:57:12;7.68;;;5.63;;
73919;SDS011;62266;53.348;-1.496;2023-07-13T05:59:56;5.65;;;5.03;;
73919;SDS011;62266;53.348;-1.496;2023-07-13T06:02:40;8.50;;;5.25;;
73919;SDS011;62266;53.348;-1.496;2023-07-13T06:05:24;8.43;;;5.20;;
73919;SDS011;62266;53.348;-1.496;2023-07-13T06:08:08;7.53;;;5.40;;
73919;SDS011;62266;53.348;-1.496;2023-07-13T06:10:52;6.97;;;5.32;;
73919;SDS011;62266;53.348;-1.496;2023-07-13T06:13:36;4.95;;;4.40;;
73919;SDS011;62266;53.348;-1.496;2023-07-13T06:16:20;5.07;;;4.00;;
73919;SDS011;62266;53.348;-1.496;2023-07-13T06:19:04;4.20;;;3.90;;
73919;SDS011;62266;53.348;-1.496;2023-07-13T06:21:48;5.10;;;4.57;;
73919;SDS011;62266;53.348;-1.496;2023-07-13T06:24:33;4.50;;;4.10;;
73919;SDS011;62266;53.348;-1.496;2023-07-13T06:27:17;6.65;;;4.13;;
73919;SDS011;62266;53.348;-1.496;2023-07-13T06:30:01;5.32;;;4.32;;
73919;SDS011;62266;53.348;-1.496;2023-07-13T06:32:46;5.07;;;4.47;;
73919;SDS011;62266;53.348;-1.496;2023-07-13T06:35:30;5.85;;;4.40;;
73919;SDS011;62266;53.348;-1.496;2023-07-13T06:38:17;6.63;;;4.70;;
73919;SDS011;62266;53.348;-1.496;2023-07-13T06:41:01;5.70;;;4.40;;
73919;SDS011;62266;53.348;-1.496;2023-07-13T06:43:46;6.57;;;3.80;;
73919;SDS011;62266;53.348;-1.496;2023-07-13T06:46:31;4.23;;;3.53;;
73919;SDS011;62266;53.348;-1.496;2023-07-13T06:49:18;5.75;;;3.25;;
73919;SDS011;62266;53.348;-1.496;2023-07-13T06:52:02;4.03;;;3.22;;
73919;SDS011;62266;53.348;-1.496;2023-07-13T06:54:46;5.88;;;5.00;;
73919;SDS011;62266;53.348;-1.496;2023-07-13T06:57:30;9.05;;;5.93;;
73919;SDS011;62266;53.348;-1.496;2023-07-13T07:00:21;8.60;;;6.03;;
73919;SDS011;62266;53.348;-1.496;2023-07-13T07:03:08;7.05;;;5.78;;
73919;SDS011;62266;53.348;-1.496;2023-07-13T07:05:52;9.82;;;5.47;;
73919;SDS011;62266;53.348;-1.496;2023-07-13T07:08:36;6.25;;;5.35;;
73919;SDS011;62266;53.348;-1.496;2023-07-13T07:11:24;7.20;;;4.97;;
73919;SDS011;62266;53.348;-1.496;2023-07-13T07:14:09;7.20;;;5.57;;
73919;SDS011;62266;53.348;-1.496;2023-07-13T07:16:53;6.55;;;5.18;;
73919;SDS011;62266;53.348;-1.496;2023-07-13T07:19:42;6.18;;;4.85;;
73919;SDS011;62266;53.348;-1.496;2023-07-13T07:22:27;4.38;;;3.70;;
73919;SDS011;62266;53.348;-1.496;2023-07-13T07:25:11;4.78;;;3.53;;
73919;SDS011;62266;53.348;-1.496;2023-07-13T07:27:56;4.60;;;3.17;;
73919;SDS011;62266;53.348;-1.496;2023-07-13T07:30:43;3.88;;;3.25;;
73919;SDS011;62266;53.348;-1.496;2023-07-13T07:33:28;4.53;;;2.92;;
73919;SDS011;62266;53.348;-1.496;2023-07-13T07:36:15;4.75;;;3.42;;
73919;SDS011;62266;53.348;-1.496;2023-07-13T07:38:59;5.63;;;4.50;;
73919;SDS011;62266;53.348;-1.496;2023-07-13T07:41:43;4.90;;;3.90;;
73919;SDS011;62266;53.348;-1.496;2023-07-13T07:44:28;6.18;;;4.57;;
73919;SDS011;62266;53.348;-1.496;2023-07-13T07:47:13;5.60;;;4.63;;
73919;SDS011;62266;53.348;-1.496;2023-07-13T07:49:57;4.38;;;3.90;;
73919;SDS011;62266;53.348;-1.496;2023-07-13T07:52:41;3.70;;;3.40;;
73919;SDS011;62266;53.348;-1.496;2023-07-13T07:55:27;4.07;;;3.67;;
73919;SDS011;62266;53.348;-1.496;2023-07-13T07:58:12;6.60;;;3.60;;
73919;SDS011;62266;53.348;-1.496;2023-07-13T08:01:03;3.83;;;3.53;;
73919;SDS011;62266;53.348;-1.496;2023-07-13T08:03:49;4.25;;;3.40;;
73919;SDS011;62266;53.348;-1.496;2023-07-13T08:06:33;2.97;;;2.70;;
73919;SDS011;62266;53.348;-1.496;2023-07-13T08:09:18;6.93;;;2.60;;
73919;SDS011;62266;53.348;-1.496;2023-07-13T08:12:02;3.10;;;1.95;;
73919;SDS011;62266;53.348;-1.496;2023-07-13T08:14:50;3.03;;;2.35;;
73919;SDS011;62266;53.348;-1.496;2023-07-13T08:17:41;2.92;;;2.20;;
73919;SDS011;62266;53.348;-1.496;2023-07-13T08:20:26;3.45;;;2.53;;
73919;SDS011;62266;53.348;-1.496;2023-07-13T08:23:10;3.83;;;1.93;;
73919;SDS011;62266;53.348;-1.496;2023-07-13T08:25:54;3.88;;;2.00;;
73919;SDS011;62266;53.348;-1.496;2023-07-13T08:28:39;2.25;;;1.52;;
73919;SDS011;62266;53.348;-1.496;2023-07-13T08:31:24;2.90;;;1.30;;
73919;SDS011;62266;53.348;-1.496;2023-07-13T08:34:09;4.03;;;1.45;;
73919;SDS011;62266;53.348;-1.496;2023-07-13T08:36:53;2.80;;;1.37;;
73919;SDS011;62266;53.348;-1.496;2023-07-13T08:39:37;3.80;;;1.38;;
73919;SDS011;62266;53.348;-1.496;2023-07-13T08:45:22;3.95;;;1.60;;
73919;SDS011;62266;53.348;-1.496;2023-07-13T08:48:09;2.10;;;1.90;;
73919;SDS011;62266;53.348;-1.496;2023-07-13T08:50:59;1.70;;;1.30;;
73919;SDS011;62266;53.348;-1.496;2023-07-13T08:53:47;3.17;;;1.42;;
73919;SDS011;62266;53.348;-1.496;2023-07-13T08:56:34;2.55;;;1.45;;
73919;SDS011;62266;53.348;-1.496;2023-07-13T08:59:18;2.17;;;1.33;;
73919;SDS011;62266;53.348;-1.496;2023-07-13T09:05:15;2.00;;;1.80;;
73919;SDS011;62266;53.348;-1.496;2023-07-13T09:14:37;2.88;;;1.38;;
73919;SDS011;62266;53.348;-1.496;2023-07-13T09:17:29;4.00;;;1.40;;
73919;SDS011;62266;53.348;-1.496;2023-07-13T09:20:32;2.50;;;1.40;;
73919;SDS011;62266;53.348;-1.496;2023-07-13T09:23:19;1.35;;;1.17;;
73919;SDS011;62266;53.348;-1.496;2023-07-13T09:26:19;1.85;;;1.30;;
73919;SDS011;62266;53.348;-1.496;2023-07-13T09:29:11;2.42;;;1.50;;
73919;SDS011;62266;53.348;-1.496;2023-07-13T09:32:07;2.53;;;1.50;;
73919;SDS011;62266;53.348;-1.496;2023-07-13T09:34:54;3.60;;;2.23;;
73919;SDS011;62266;53.348;-1.496;2023-07-13T09:37:42;4.07;;;1.92;;
73919;SDS011;62266;53.348;-1.496;2023-07-13T09:40:36;3.00;;;1.80;;
73919;SDS011;62266;53.348;-1.496;2023-07-13T09:43:21;2.80;;;1.90;;
73919;SDS011;62266;53.348;-1.496;2023-07-13T09:46:16;2.38;;;1.70;;
73919;SDS011;62266;53.348;-1.496;2023-07-13T09:49:07;2.67;;;1.60;;
73919;SDS011;62266;53.348;-1.496;2023-07-13T09:52:04;2.35;;;1.40;;
73919;SDS011;62266;53.348;-1.496;2023-07-13T09:54:50;2.15;;;1.20;;
73919;SDS011;62266;53.348;-1.496;2023-07-13T09:57:37;2.92;;;1.60;;
73919;SDS011;62266;53.348;-1.496;2023-07-13T10:00:30;2.22;;;1.73;;
73919;SDS011;62266;53.348;-1.496;2023-07-13T10:03:19;2.30;;;1.67;;
73919;SDS011;62266;53.348;-1.496;2023-07-13T10:06:15;1.70;;;1.60;;
73919;SDS011;62266;53.348;-1.496;2023-07-13T10:09:00;4.72;;;1.83;;
73919;SDS011;62266;53.348;-1.496;2023-07-13T10:11:44;4.18;;;1.80;;
73919;SDS011;62266;53.348;-1.496;2023-07-13T10:14:28;2.05;;;1.90;;
73919;SDS011;62266;53.348;-1.496;2023-07-13T10:17:13;2.83;;;1.90;;
73919;SDS011;62266;53.348;-1.496;2023-07-13T10:20:04;3.08;;;2.10;;
73919;SDS011;62266;53.348;-1.496;2023-07-13T10:22:55;3.33;;;2.15;;
73919;SDS011;62266;53.348;-1.496;2023-07-13T10:25:48;2.70;;;2.08;;
73919;SDS011;62266;53.348;-1.496;2023-07-13T10:28:34;3.08;;;1.95;;
73919;SDS011;62266;53.348;-1.496;2023-07-13T10:31:21;2.00;;;1.90;;
73919;SDS011;62266;53.348;-1.496;2023-07-13T10:34:08;4.15;;;2.15;;
73919;SDS011;62266;53.348;-1.496;2023-07-13T10:36:53;3.42;;;2.10;;
73919;SDS011;62266;53.348;-1.496;2023-07-13T10:39:38;2.08;;;1.88;;
73919;SDS011;62266;53.348;-1.496;2023-07-13T10:42:36;2.75;;;1.77;;
73919;SDS011;62266;53.348;-1.496;2023-07-13T10:45:23;2.10;;;1.63;;
73919;SDS011;62266;53.348;-1.496;2023-07-13T10:48:09;5.05;;;1.90;;
73919;SDS011;62266;53.348;-1.496;2023-07-13T10:50:56;2.28;;;2.00;;
73919;SDS011;62266;53.348;-1.496;2023-07-13T10:53:43;2.70;;;1.80;;
73919;SDS011;62266;53.348;-1.496;2023-07-13T10:56:28;3.22;;;1.83;;
73919;SDS011;62266;53.348;-1.496;2023-07-13T10:59:17;2.47;;;1.63;;
73919;SDS011;62266;53.348;-1.496;2023-07-13T11:04:52;1.77;;;1.60;;
73919;SDS011;62266;53.348;-1.496;2023-07-13T11:07:51;2.33;;;1.15;;
73919;SDS011;62266;53.348;-1.496;2023-07-13T11:10:49;1.67;;;0.90;;
73919;SDS011;62266;53.348;-1.496;2023-07-13T11:16:34;2.53;;;1.13;;
73919;SDS011;62266;53.348;-1.496;2023-07-13T11:24:53;2.42;;;1.00;;
73919;SDS011;62266;53.348;-1.496;2023-07-13T11:27:50;2.50;;;0.90;;
73919;SDS011;62266;53.348;-1.496;2023-07-13T11:30:36;1.65;;;0.90;;
73919;SDS011;62266;53.348;-1.496;2023-07-13T11:34:10;2.50;;;0.98;;
73919;SDS011;62266;53.348;-1.496;2023-07-13T11:36:35;1.65;;;1.10;;
73919;SDS011;62266;53.348;-1.496;2023-07-13T11:39:34;8.18;;;1.35;;
73919;SDS011;62266;53.348;-1.496;2023-07-13T11:42:25;2.80;;;1.20;;
73919;SDS011;62266;53.348;-1.496;2023-07-13T11:45:18;2.05;;;1.02;;
73919;SDS011;62266;53.348;-1.496;2023-07-13T11:51:07;2.75;;;0.95;;
73919;SDS011;62266;53.348;-1.496;2023-07-13T11:54:06;1.83;;;1.00;;
73919;SDS011;62266;53.348;-1.496;2023-07-13T11:56:58;1.90;;;1.10;;
73919;SDS011;62266;53.348;-1.496;2023-07-13T11:59:45;3.40;;;1.23;;
73919;SDS011;62266;53.348;-1.496;2023-07-13T12:02:29;1.40;;;1.20;;
73919;SDS011;62266;53.348;-1.496;2023-07-13T12:05:16;2.70;;;1.30;;
73919;SDS011;62266;53.348;-1.496;2023-07-13T12:08:09;2.72;;;1.05;;
73919;SDS011;62266;53.348;-1.496;2023-07-13T12:11:02;2.07;;;0.90;;
73919;SDS011;62266;53.348;-1.496;2023-07-13T12:13:49;2.33;;;1.10;;
73919;SDS011;62266;53.348;-1.496;2023-07-13T12:16:33;1.40;;;0.90;;
73919;SDS011;62266;53.348;-1.496;2023-07-13T12:19:18;2.63;;;1.13;;
73919;SDS011;62266;53.348;-1.496;2023-07-13T12:22:08;2.00;;;1.15;;
73919;SDS011;62266;53.348;-1.496;2023-07-13T12:27:40;2.20;;;1.00;;
73919;SDS011;62266;53.348;-1.496;2023-07-13T12:30:28;1.75;;;1.10;;
73919;SDS011;62266;53.348;-1.496;2023-07-13T12:33:19;1.98;;;1.10;;
73919;SDS011;62266;53.348;-1.496;2023-07-13T12:36:04;3.85;;;1.17;;
73919;SDS011;62266;53.348;-1.496;2023-07-13T12:38:49;2.80;;;1.00;;
73919;SDS011;62266;53.348;-1.496;2023-07-13T12:41:35;2.78;;;1.20;;
73919;SDS011;62266;53.348;-1.496;2023-07-13T12:44:27;2.10;;;1.10;;
73919;SDS011;62266;53.348;-1.496;2023-07-13T12:47:12;2.80;;;1.13;;
73919;SDS011;62266;53.348;-1.496;2023-07-13T12:49:59;3.67;;;1.40;;
73919;SDS011;62266;53.348;-1.496;2023-07-13T12:52:49;3.37;;;1.30;;
73919;SDS011;62266;53.348;-1.496;2023-07-13T12:55:41;1.67;;;1.17;;
73919;SDS011;62266;53.348;-1.496;2023-07-13T12:58:28;2.85;;;1.50;;
73919;SDS011;62266;53.348;-1.496;2023-07-13T13:01:13;2.42;;;1.15;;
73919;SDS011;62266;53.348;-1.496;2023-07-13T13:04:00;2.75;;;1.10;;
73919;SDS011;62266;53.348;-1.496;2023-07-13T13:06:45;3.43;;;1.33;;
73919;SDS011;62266;53.348;-1.496;2023-07-13T13:09:30;2.65;;;1.20;;
73919;SDS011;62266;53.348;-1.496;2023-07-13T13:12:14;2.13;;;1.02;;
73919;SDS011;62266;53.348;-1.496;2023-07-13T13:14:59;3.35;;;1.02;;
73919;SDS011;62266;53.348;-1.496;2023-07-13T13:17:43;3.47;;;1.15;;
73919;SDS011;62266;53.348;-1.496;2023-07-13T13:20:27;5.27;;;1.00;;
73919;SDS011;62266;53.348;-1.496;2023-07-13T13:23:12;2.05;;;1.00;;
73919;SDS011;62266;53.348;-1.496;2023-07-13T13:26:01;2.72;;;1.40;;
73919;SDS011;62266;53.348;-1.496;2023-07-13T13:28:46;3.40;;;1.05;;
73919;SDS011;62266;53.348;-1.496;2023-07-13T13:31:31;3.03;;;1.50;;
73919;SDS011;62266;53.348;-1.496;2023-07-13T13:34:16;2.97;;;0.87;;
73919;SDS011;62266;53.348;-1.496;2023-07-13T13:37:01;4.45;;;1.40;;
73919;SDS011;62266;53.348;-1.496;2023-07-13T13:39:45;2.50;;;1.10;;
73919;SDS011;62266;53.348;-1.496;2023-07-13T13:42:30;2.15;;;1.20;;
73919;SDS011;62266;53.348;-1.496;2023-07-13T13:45:15;3.65;;;1.40;;
73919;SDS011;62266;53.348;-1.496;2023-07-13T13:48:04;3.07;;;1.20;;
73919;SDS011;62266;53.348;-1.496;2023-07-13T13:50:48;2.28;;;1.17;;
73919;SDS011;62266;53.348;-1.496;2023-07-13T13:53:32;1.75;;;1.17;;
73919;SDS011;62266;53.348;-1.496;2023-07-13T13:56:17;2.90;;;1.63;;
73919;SDS011;62266;53.348;-1.496;2023-07-13T13:59:03;3.08;;;1.65;;
73919;SDS011;62266;53.348;-1.496;2023-07-13T14:01:48;2.27;;;1.10;;
73919;SDS011;62266;53.348;-1.496;2023-07-13T14:04:33;2.25;;;1.27;;
73919;SDS011;62266;53.348;-1.496;2023-07-13T14:07:17;2.25;;;1.17;;
73919;SDS011;62266;53.348;-1.496;2023-07-13T14:10:01;4.22;;;1.35;;
73919;SDS011;62266;53.348;-1.496;2023-07-13T14:12:47;1.92;;;1.13;;
73919;SDS011;62266;53.348;-1.496;2023-07-13T14:15:32;2.93;;;1.30;;
73919;SDS011;62266;53.348;-1.496;2023-07-13T14:18:17;1.98;;;1.10;;
73919;SDS011;62266;53.348;-1.496;2023-07-13T14:21:01;2.60;;;1.30;;
73919;SDS011;62266;53.348;-1.496;2023-07-13T14:23:46;3.08;;;1.10;;
73919;SDS011;62266;53.348;-1.496;2023-07-13T14:26:36;2.30;;;1.30;;
73919;SDS011;62266;53.348;-1.496;2023-07-13T14:29:24;2.17;;;1.30;;
73919;SDS011;62266;53.348;-1.496;2023-07-13T14:32:11;2.25;;;1.20;;
73919;SDS011;62266;53.348;-1.496;2023-07-13T14:34:55;1.35;;;1.00;;
73919;SDS011;62266;53.348;-1.496;2023-07-13T14:37:41;2.10;;;1.20;;
73919;SDS011;62266;53.348;-1.496;2023-07-13T14:40:29;2.40;;;1.23;;
73919;SDS011;62266;53.348;-1.496;2023-07-13T14:43:15;2.50;;;1.17;;
73919;SDS011;62266;53.348;-1.496;2023-07-13T14:46:01;2.30;;;1.25;;
73919;SDS011;62266;53.348;-1.496;2023-07-13T14:48:51;2.60;;;1.40;;
73919;SDS011;62266;53.348;-1.496;2023-07-13T14:51:41;2.38;;;1.17;;
73919;SDS011;62266;53.348;-1.496;2023-07-13T14:54:32;3.05;;;1.20;;
73919;SDS011;62266;53.348;-1.496;2023-07-13T14:57:19;2.43;;;1.30;;
73919;SDS011;62266;53.348;-1.496;2023-07-13T15:00:30;2.03;;;1.27;;
73919;SDS011;62266;53.348;-1.496;2023-07-13T15:03:20;3.08;;;1.48;;
73919;SDS011;62266;53.348;-1.496;2023-07-13T15:06:10;2.90;;;1.17;;
73919;SDS011;62266;53.348;-1.496;2023-07-13T15:08:58;2.63;;;1.67;;
73919;SDS011;62266;53.348;-1.496;2023-07-13T15:11:42;2.83;;;1.20;;
73919;SDS011;62266;53.348;-1.496;2023-07-13T15:14:42;4.00;;;1.48;;
73919;SDS011;62266;53.348;-1.496;2023-07-13T15:17:31;3.47;;;1.23;;
73919;SDS011;62266;53.348;-1.496;2023-07-13T15:23:27;2.20;;;1.27;;
73919;SDS011;62266;53.348;-1.496;2023-07-13T15:26:12;3.57;;;1.20;;
73919;SDS011;62266;53.348;-1.496;2023-07-13T15:28:57;2.45;;;1.50;;
73919;SDS011;62266;53.348;-1.496;2023-07-13T15:31:42;2.85;;;1.38;;
73919;SDS011;62266;53.348;-1.496;2023-07-13T15:34:26;2.13;;;1.27;;
73919;SDS011;62266;53.348;-1.496;2023-07-13T15:37:14;2.88;;;1.50;;
73919;SDS011;62266;53.348;-1.496;2023-07-13T15:39:59;2.50;;;1.30;;
73919;SDS011;62266;53.348;-1.496;2023-07-13T15:42:44;2.15;;;1.30;;
73919;SDS011;62266;53.348;-1.496;2023-07-13T15:45:28;2.83;;;1.52;;
73919;SDS011;62266;53.348;-1.496;2023-07-13T15:48:15;2.13;;;1.52;;
73919;SDS011;62266;53.348;-1.496;2023-07-13T15:51:02;2.05;;;1.60;;
73919;SDS011;62266;53.348;-1.496;2023-07-13T15:53:47;1.67;;;1.30;;
73919;SDS011;62266;53.348;-1.496;2023-07-13T15:56:33;1.40;;;1.20;;
73919;SDS011;62266;53.348;-1.496;2023-07-13T15:59:19;3.10;;;1.40;;
73919;SDS011;62266;53.348;-1.496;2023-07-13T16:02:10;1.67;;;1.20;;
73919;SDS011;62266;53.348;-1.496;2023-07-13T16:04:56;1.98;;;1.10;;
73919;SDS011;62266;53.348;-1.496;2023-07-13T16:07:40;1.13;;;1.00;;
73919;SDS011;62266;53.348;-1.496;2023-07-13T16:10:33;2.38;;;0.88;;
73919;SDS011;62266;53.348;-1.496;2023-07-13T16:13:21;1.75;;;1.00;;
73919;SDS011;62266;53.348;-1.496;2023-07-13T16:16:09;2.88;;;1.02;;
73919;SDS011;62266;53.348;-1.496;2023-07-13T16:18:55;2.45;;;1.27;;
73919;SDS011;62266;53.348;-1.496;2023-07-13T16:21:44;1.83;;;1.10;;
73919;SDS011;62266;53.348;-1.496;2023-07-13T16:24:30;2.10;;;1.10;;
73919;SDS011;62266;53.348;-1.496;2023-07-13T16:27:15;1.73;;;1.20;;
73919;SDS011;62266;53.348;-1.496;2023-07-13T16:30:08;1.67;;;1.08;;
73919;SDS011;62266;53.348;-1.496;2023-07-13T16:32:55;1.65;;;1.30;;
73919;SDS011;62266;53.348;-1.496;2023-07-13T16:35:40;4.10;;;1.43;;
73919;SDS011;62266;53.348;-1.496;2023-07-13T16:38:28;3.72;;;1.38;;
73919;SDS011;62266;53.348;-1.496;2023-07-13T16:41:14;3.35;;;1.67;;
73919;SDS011;62266;53.348;-1.496;2023-07-13T16:43:58;3.67;;;1.58;;
73919;SDS011;62266;53.348;-1.496;2023-07-13T16:46:42;2.50;;;1.45;;
73919;SDS011;62266;53.348;-1.496;2023-07-13T16:49:28;2.50;;;1.83;;
73919;SDS011;62266;53.348;-1.496;2023-07-13T16:52:15;2.15;;;1.65;;
73919;SDS011;62266;53.348;-1.496;2023-07-13T16:55:03;4.88;;;1.60;;
73919;SDS011;62266;53.348;-1.496;2023-07-13T16:57:48;2.88;;;1.58;;
73919;SDS011;62266;53.348;-1.496;2023-07-13T17:00:32;3.70;;;1.67;;
73919;SDS011;62266;53.348;-1.496;2023-07-13T17:03:17;2.87;;;1.47;;